San Antonio, Texas
Traffic Map
Current Weather Conditions
San Antonio, Texas
Clear
Clear
61°
Feels Like: 61°
Wind Chill: 61° Ceiling: Unl
Heat Index: 61° Visibility: 10mi
Dew Point: 42° Wind: 17mph
Humidity: 50% Direction: 160° (SSE)
Pressure: 30.09in Gusts: 24mph
Raw Report DataKSKF 161558Z AUTO 16015G21KT 10SM CLR 16/06 A3009 RMK AO2 SLP189 T01630058 $
Traffic Incident Summary
Active as of:
Severity:
Category:
InformationThere was an issue retrieving the traffic information for this location. Please try a different location or try again shortly.
Advertisements
At Last! Intellicast now available for iPhone and Android